sensor_id;sensor_type;location;lat;lon;timestamp;temperature;humidity
27164;DHT22;14685;50.618;7.024;2023-06-19T00:01:13;26.20;91.90
27164;DHT22;14685;50.618;7.024;2023-06-19T00:03:41;26.20;91.80
27164;DHT22;14685;50.618;7.024;2023-06-19T00:06:09;26.20;91.70
27164;DHT22;14685;50.618;7.024;2023-06-19T00:08:36;26.20;91.70
27164;DHT22;14685;50.618;7.024;2023-06-19T00:11:03;26.20;91.60
27164;DHT22;14685;50.618;7.024;2023-06-19T00:13:30;26.10;91.70
27164;DHT22;14685;50.618;7.024;2023-06-19T00:15:57;26.10;91.90
27164;DHT22;14685;50.618;7.024;2023-06-19T00:18:28;26.00;91.90
27164;DHT22;14685;50.618;7.024;2023-06-19T00:20:55;25.80;91.90
27164;DHT22;14685;50.618;7.024;2023-06-19T00:23:23;25.80;92.00
27164;DHT22;14685;50.618;7.024;2023-06-19T00:25:50;25.80;92.00
27164;DHT22;14685;50.618;7.024;2023-06-19T00:28:17;25.80;92.20
27164;DHT22;14685;50.618;7.024;2023-06-19T00:30:46;25.80;92.20
27164;DHT22;14685;50.618;7.024;2023-06-19T00:33:13;25.80;92.40
27164;DHT22;14685;50.618;7.024;2023-06-19T00:35:40;25.80;92.60
27164;DHT22;14685;50.618;7.024;2023-06-19T00:38:08;25.80;92.60
27164;DHT22;14685;50.618;7.024;2023-06-19T00:40:35;25.80;92.40
27164;DHT22;14685;50.618;7.024;2023-06-19T00:43:03;25.80;92.50
27164;DHT22;14685;50.618;7.024;2023-06-19T00:45:30;25.80;92.50
27164;DHT22;14685;50.618;7.024;2023-06-19T00:47:59;25.80;92.50
27164;DHT22;14685;50.618;7.024;2023-06-19T00:50:28;25.80;92.40
27164;DHT22;14685;50.618;7.024;2023-06-19T00:52:57;25.70;92.40
27164;DHT22;14685;50.618;7.024;2023-06-19T00:55:26;25.70;92.50
27164;DHT22;14685;50.618;7.024;2023-06-19T00:57:54;25.70;92.40
27164;DHT22;14685;50.618;7.024;2023-06-19T01:00:22;25.70;92.30
27164;DHT22;14685;50.618;7.024;2023-06-19T01:02:49;25.60;92.30
27164;DHT22;14685;50.618;7.024;2023-06-19T01:05:17;25.70;92.40
27164;DHT22;14685;50.618;7.024;2023-06-19T01:10:30;24.20;93.50
27164;DHT22;14685;50.618;7.024;2023-06-19T01:13:02;25.50;92.20
27164;DHT22;14685;50.618;7.024;2023-06-19T01:15:32;25.60;92.30
27164;DHT22;14685;50.618;7.024;2023-06-19T01:18:00;25.50;92.10
27164;DHT22;14685;50.618;7.024;2023-06-19T01:20:28;25.50;92.10
27164;DHT22;14685;50.618;7.024;2023-06-19T01:22:55;25.50;92.10
27164;DHT22;14685;50.618;7.024;2023-06-19T01:25:24;25.50;92.00
27164;DHT22;14685;50.618;7.024;2023-06-19T01:27:51;25.50;92.10
27164;DHT22;14685;50.618;7.024;2023-06-19T01:30:19;25.50;92.10
27164;DHT22;14685;50.618;7.024;2023-06-19T01:35:23;25.50;92.20
27164;DHT22;14685;50.618;7.024;2023-06-19T01:37:52;25.60;92.30
27164;DHT22;14685;50.618;7.024;2023-06-19T01:40:20;25.50;92.10
27164;DHT22;14685;50.618;7.024;2023-06-19T01:42:53;25.50;92.10
27164;DHT22;14685;50.618;7.024;2023-06-19T01:45:21;25.50;92.10
27164;DHT22;14685;50.618;7.024;2023-06-19T01:47:48;25.50;92.20
27164;DHT22;14685;50.618;7.024;2023-06-19T01:50:15;25.50;92.20
27164;DHT22;14685;50.618;7.024;2023-06-19T01:52:44;25.50;92.40
27164;DHT22;14685;50.618;7.024;2023-06-19T01:55:11;25.50;92.10
27164;DHT22;14685;50.618;7.024;2023-06-19T01:57:38;25.60;92.20
27164;DHT22;14685;50.618;7.024;2023-06-19T02:00:05;25.60;92.30
27164;DHT22;14685;50.618;7.024;2023-06-19T02:02:37;25.50;92.20
27164;DHT22;14685;50.618;7.024;2023-06-19T02:05:04;25.50;92.30
27164;DHT22;14685;50.618;7.024;2023-06-19T02:07:31;25.50;92.30
27164;DHT22;14685;50.618;7.024;2023-06-19T02:09:59;25.50;92.50
27164;DHT22;14685;50.618;7.024;2023-06-19T02:12:26;25.50;92.10
27164;DHT22;14685;50.618;7.024;2023-06-19T02:14:53;25.50;92.30
27164;DHT22;14685;50.618;7.024;2023-06-19T02:17:20;25.50;92.20
27164;DHT22;14685;50.618;7.024;2023-06-19T02:19:47;25.50;92.10
27164;DHT22;14685;50.618;7.024;2023-06-19T02:22:14;25.40;92.20
27164;DHT22;14685;50.618;7.024;2023-06-19T02:24:41;25.50;92.20
27164;DHT22;14685;50.618;7.024;2023-06-19T02:27:08;25.40;92.20
27164;DHT22;14685;50.618;7.024;2023-06-19T02:29:35;25.50;92.20
27164;DHT22;14685;50.618;7.024;2023-06-19T02:32:03;25.40;92.20
27164;DHT22;14685;50.618;7.024;2023-06-19T02:34:30;25.40;92.20
27164;DHT22;14685;50.618;7.024;2023-06-19T02:36:57;25.40;92.70
27164;DHT22;14685;50.618;7.024;2023-06-19T02:39:24;25.40;92.40
27164;DHT22;14685;50.618;7.024;2023-06-19T02:41:51;25.40;92.50
27164;DHT22;14685;50.618;7.024;2023-06-19T02:44:18;25.40;92.70
27164;DHT22;14685;50.618;7.024;2023-06-19T02:46:48;25.30;92.60
27164;DHT22;14685;50.618;7.024;2023-06-19T02:49:14;25.30;92.60
27164;DHT22;14685;50.618;7.024;2023-06-19T02:51:41;25.30;92.70
27164;DHT22;14685;50.618;7.024;2023-06-19T02:54:08;25.30;92.70
27164;DHT22;14685;50.618;7.024;2023-06-19T02:56:35;25.30;92.80
27164;DHT22;14685;50.618;7.024;2023-06-19T02:59:02;25.20;92.80
27164;DHT22;14685;50.618;7.024;2023-06-19T03:01:29;25.20;92.80
27164;DHT22;14685;50.618;7.024;2023-06-19T03:03:56;25.30;92.80
27164;DHT22;14685;50.618;7.024;2023-06-19T03:06:25;25.20;93.00
27164;DHT22;14685;50.618;7.024;2023-06-19T03:08:52;25.20;93.20
27164;DHT22;14685;50.618;7.024;2023-06-19T03:11:19;25.20;93.30
27164;DHT22;14685;50.618;7.024;2023-06-19T03:13:52;25.20;93.30
27164;DHT22;14685;50.618;7.024;2023-06-19T03:16:20;25.10;93.50
27164;DHT22;14685;50.618;7.024;2023-06-19T03:18:47;25.10;93.70
27164;DHT22;14685;50.618;7.024;2023-06-19T03:21:18;25.10;93.90
27164;DHT22;14685;50.618;7.024;2023-06-19T03:23:46;25.10;94.00
27164;DHT22;14685;50.618;7.024;2023-06-19T03:26:13;25.00;94.10
27164;DHT22;14685;50.618;7.024;2023-06-19T03:28:40;25.00;94.20
27164;DHT22;14685;50.618;7.024;2023-06-19T03:31:07;25.00;94.30
27164;DHT22;14685;50.618;7.024;2023-06-19T03:33:34;25.00;94.40
27164;DHT22;14685;50.618;7.024;2023-06-19T03:36:01;24.90;94.40
27164;DHT22;14685;50.618;7.024;2023-06-19T03:38:29;24.90;94.50
27164;DHT22;14685;50.618;7.024;2023-06-19T03:40:56;24.90;94.70
27164;DHT22;14685;50.618;7.024;2023-06-19T03:43:23;24.80;94.70
27164;DHT22;14685;50.618;7.024;2023-06-19T03:45:50;24.80;95.20
27164;DHT22;14685;50.618;7.024;2023-06-19T03:48:17;24.80;95.30
27164;DHT22;14685;50.618;7.024;2023-06-19T03:50:44;24.80;95.40
27164;DHT22;14685;50.618;7.024;2023-06-19T03:53:11;24.70;95.60
27164;DHT22;14685;50.618;7.024;2023-06-19T03:55:38;24.70;95.70
27164;DHT22;14685;50.618;7.024;2023-06-19T03:58:05;24.70;95.70
27164;DHT22;14685;50.618;7.024;2023-06-19T04:00:35;24.70;95.90
27164;DHT22;14685;50.618;7.024;2023-06-19T04:03:02;24.70;96.00
27164;DHT22;14685;50.618;7.024;2023-06-19T04:05:30;24.70;96.10
27164;DHT22;14685;50.618;7.024;2023-06-19T04:07:57;24.70;96.20
27164;DHT22;14685;50.618;7.024;2023-06-19T04:10:24;24.70;96.20
27164;DHT22;14685;50.618;7.024;2023-06-19T04:12:52;24.70;96.20
27164;DHT22;14685;50.618;7.024;2023-06-19T04:15:19;24.70;96.40
27164;DHT22;14685;50.618;7.024;2023-06-19T04:17:45;24.70;96.60
27164;DHT22;14685;50.618;7.024;2023-06-19T04:20:13;24.70;96.70
27164;DHT22;14685;50.618;7.024;2023-06-19T04:22:41;24.60;96.90
27164;DHT22;14685;50.618;7.024;2023-06-19T04:25:09;24.60;97.00
27164;DHT22;14685;50.618;7.024;2023-06-19T04:27:39;24.60;97.10
27164;DHT22;14685;50.618;7.024;2023-06-19T04:30:06;24.60;97.10
27164;DHT22;14685;50.618;7.024;2023-06-19T04:32:34;24.60;97.10
27164;DHT22;14685;50.618;7.024;2023-06-19T04:35:02;24.60;97.20
27164;DHT22;14685;50.618;7.024;2023-06-19T04:37:30;24.60;97.40
27164;DHT22;14685;50.618;7.024;2023-06-19T04:39:57;24.60;97.30
27164;DHT22;14685;50.618;7.024;2023-06-19T04:42:24;24.60;97.20
27164;DHT22;14685;50.618;7.024;2023-06-19T04:44:54;24.60;97.60
27164;DHT22;14685;50.618;7.024;2023-06-19T04:47:23;24.60;97.50
27164;DHT22;14685;50.618;7.024;2023-06-19T04:50:02;24.60;97.80
27164;DHT22;14685;50.618;7.024;2023-06-19T04:52:29;24.60;97.80
27164;DHT22;14685;50.618;7.024;2023-06-19T04:54:57;24.60;97.80
27164;DHT22;14685;50.618;7.024;2023-06-19T04:57:24;24.60;98.00
27164;DHT22;14685;50.618;7.024;2023-06-19T04:59:51;24.50;98.00
27164;DHT22;14685;50.618;7.024;2023-06-19T05:02:18;24.50;98.20
27164;DHT22;14685;50.618;7.024;2023-06-19T05:04:45;24.50;98.50
27164;DHT22;14685;50.618;7.024;2023-06-19T05:07:12;24.50;98.70
27164;DHT22;14685;50.618;7.024;2023-06-19T05:09:42;24.50;98.80
27164;DHT22;14685;50.618;7.024;2023-06-19T05:12:09;24.50;98.90
27164;DHT22;14685;50.618;7.024;2023-06-19T05:14:36;24.50;99.20
27164;DHT22;14685;50.618;7.024;2023-06-19T05:17:04;24.50;99.30
27164;DHT22;14685;50.618;7.024;2023-06-19T05:19:31;24.40;99.40
27164;DHT22;14685;50.618;7.024;2023-06-19T05:21:58;24.50;99.50
27164;DHT22;14685;50.618;7.024;2023-06-19T05:24:25;24.50;99.50
27164;DHT22;14685;50.618;7.024;2023-06-19T05:26:52;24.60;99.60
27164;DHT22;14685;50.618;7.024;2023-06-19T05:29:19;24.60;99.60
27164;DHT22;14685;50.618;7.024;2023-06-19T05:31:46;24.60;99.60
27164;DHT22;14685;50.618;7.024;2023-06-19T05:34:14;24.60;99.60
27164;DHT22;14685;50.618;7.024;2023-06-19T05:36:44;24.60;99.90
27164;DHT22;14685;50.618;7.024;2023-06-19T05:39:13;24.60;99.90
27164;DHT22;14685;50.618;7.024;2023-06-19T05:41:42;24.60;99.80
27164;DHT22;14685;50.618;7.024;2023-06-19T05:44:14;24.60;99.90
27164;DHT22;14685;50.618;7.024;2023-06-19T05:46:43;24.60;99.90
27164;DHT22;14685;50.618;7.024;2023-06-19T05:49:10;24.60;99.90
27164;DHT22;14685;50.618;7.024;2023-06-19T05:51:37;24.80;99.90
27164;DHT22;14685;50.618;7.024;2023-06-19T05:54:04;24.90;99.90
27164;DHT22;14685;50.618;7.024;2023-06-19T05:56:31;25.00;99.90
27164;DHT22;14685;50.618;7.024;2023-06-19T05:59:00;24.90;99.90
27164;DHT22;14685;50.618;7.024;2023-06-19T06:01:31;24.90;99.90
27164;DHT22;14685;50.618;7.024;2023-06-19T06:03:58;24.90;99.90
27164;DHT22;14685;50.618;7.024;2023-06-19T06:06:25;24.90;99.90
27164;DHT22;14685;50.618;7.024;2023-06-19T06:08:52;24.90;99.90
27164;DHT22;14685;50.618;7.024;2023-06-19T06:11:22;24.90;99.90
27164;DHT22;14685;50.618;7.024;2023-06-19T06:13:49;24.90;99.90
27164;DHT22;14685;50.618;7.024;2023-06-19T06:16:16;25.00;99.40
27164;DHT22;14685;50.618;7.024;2023-06-19T06:18:46;25.10;98.80
27164;DHT22;14685;50.618;7.024;2023-06-19T06:21:13;25.20;99.10
27164;DHT22;14685;50.618;7.024;2023-06-19T06:23:43;25.40;99.20
27164;DHT22;14685;50.618;7.024;2023-06-19T06:26:11;25.60;99.00
27164;DHT22;14685;50.618;7.024;2023-06-19T06:28:38;25.80;99.90
27164;DHT22;14685;50.618;7.024;2023-06-19T06:31:06;25.90;99.90
27164;DHT22;14685;50.618;7.024;2023-06-19T06:33:34;25.60;98.40
27164;DHT22;14685;50.618;7.024;2023-06-19T06:36:01;25.60;97.80
27164;DHT22;14685;50.618;7.024;2023-06-19T06:38:28;25.50;97.40
27164;DHT22;14685;50.618;7.024;2023-06-19T06:40:55;25.40;97.60
27164;DHT22;14685;50.618;7.024;2023-06-19T06:43:22;25.40;97.30
27164;DHT22;14685;50.618;7.024;2023-06-19T06:45:50;25.40;97.40
27164;DHT22;14685;50.618;7.024;2023-06-19T06:48:17;25.30;97.20
27164;DHT22;14685;50.618;7.024;2023-06-19T06:50:45;25.30;97.60
27164;DHT22;14685;50.618;7.024;2023-06-19T06:53:12;25.30;96.80
27164;DHT22;14685;50.618;7.024;2023-06-19T06:55:41;25.40;96.70
27164;DHT22;14685;50.618;7.024;2023-06-19T06:58:08;25.30;96.80
27164;DHT22;14685;50.618;7.024;2023-06-19T07:00:35;25.30;96.60
27164;DHT22;14685;50.618;7.024;2023-06-19T07:03:02;25.40;96.80
27164;DHT22;14685;50.618;7.024;2023-06-19T07:05:29;25.50;96.90
27164;DHT22;14685;50.618;7.024;2023-06-19T07:07:56;25.50;97.00
27164;DHT22;14685;50.618;7.024;2023-06-19T07:10:23;25.70;96.90
27164;DHT22;14685;50.618;7.024;2023-06-19T07:12:51;25.70;96.10
27164;DHT22;14685;50.618;7.024;2023-06-19T07:15:18;25.90;96.60
27164;DHT22;14685;50.618;7.024;2023-06-19T07:17:45;26.00;96.20
27164;DHT22;14685;50.618;7.024;2023-06-19T07:20:13;26.20;96.30
27164;DHT22;14685;50.618;7.024;2023-06-19T07:22:41;26.50;95.60
27164;DHT22;14685;50.618;7.024;2023-06-19T07:25:10;26.50;95.20
27164;DHT22;14685;50.618;7.024;2023-06-19T07:27:39;26.70;94.90
27164;DHT22;14685;50.618;7.024;2023-06-19T07:30:07;26.90;99.40
27164;DHT22;14685;50.618;7.024;2023-06-19T07:32:34;26.90;99.90
27164;DHT22;14685;50.618;7.024;2023-06-19T07:35:01;26.70;94.70
27164;DHT22;14685;50.618;7.024;2023-06-19T07:37:28;26.80;94.80
27164;DHT22;14685;50.618;7.024;2023-06-19T07:39:55;26.80;94.60
27164;DHT22;14685;50.618;7.024;2023-06-19T07:42:22;26.90;94.20
27164;DHT22;14685;50.618;7.024;2023-06-19T07:44:50;27.00;94.00
27164;DHT22;14685;50.618;7.024;2023-06-19T07:47:18;27.00;94.10
27164;DHT22;14685;50.618;7.024;2023-06-19T07:49:45;27.10;94.10
27164;DHT22;14685;50.618;7.024;2023-06-19T07:52:12;27.20;94.00
27164;DHT22;14685;50.618;7.024;2023-06-19T07:54:54;27.30;93.80
27164;DHT22;14685;50.618;7.024;2023-06-19T07:57:22;27.50;93.90
27164;DHT22;14685;50.618;7.024;2023-06-19T07:59:50;27.60;93.30
27164;DHT22;14685;50.618;7.024;2023-06-19T08:02:17;27.70;93.10
27164;DHT22;14685;50.618;7.024;2023-06-19T08:04:46;27.70;92.70
27164;DHT22;14685;50.618;7.024;2023-06-19T08:07:13;27.80;92.50
27164;DHT22;14685;50.618;7.024;2023-06-19T08:09:40;27.90;92.60
27164;DHT22;14685;50.618;7.024;2023-06-19T08:14:35;28.20;91.90
27164;DHT22;14685;50.618;7.024;2023-06-19T08:17:02;28.40;92.20
27164;DHT22;14685;50.618;7.024;2023-06-19T08:19:29;28.50;92.20
27164;DHT22;14685;50.618;7.024;2023-06-19T08:21:56;28.70;91.90
27164;DHT22;14685;50.618;7.024;2023-06-19T08:24:23;28.70;91.20
27164;DHT22;14685;50.618;7.024;2023-06-19T08:26:51;28.90;90.80
27164;DHT22;14685;50.618;7.024;2023-06-19T08:29:19;28.90;90.90
27164;DHT22;14685;50.618;7.024;2023-06-19T08:31:46;28.90;91.00
27164;DHT22;14685;50.618;7.024;2023-06-19T08:34:13;29.10;91.40
27164;DHT22;14685;50.618;7.024;2023-06-19T08:36:40;29.30;91.30
27164;DHT22;14685;50.618;7.024;2023-06-19T08:39:07;29.50;91.00
27164;DHT22;14685;50.618;7.024;2023-06-19T08:41:37;29.60;90.10
27164;DHT22;14685;50.618;7.024;2023-06-19T08:44:05;29.80;90.20
27164;DHT22;14685;50.618;7.024;2023-06-19T08:49:00;30.00;89.30
27164;DHT22;14685;50.618;7.024;2023-06-19T08:51:28;30.10;90.10
27164;DHT22;14685;50.618;7.024;2023-06-19T08:54:02;30.10;88.80
27164;DHT22;14685;50.618;7.024;2023-06-19T08:56:31;30.10;90.20
27164;DHT22;14685;50.618;7.024;2023-06-19T08:59:22;30.00;90.00
27164;DHT22;14685;50.618;7.024;2023-06-19T09:01:51;29.90;89.40
27164;DHT22;14685;50.618;7.024;2023-06-19T09:04:25;29.70;90.00
27164;DHT22;14685;50.618;7.024;2023-06-19T09:07:01;29.60;90.30
27164;DHT22;14685;50.618;7.024;2023-06-19T09:09:30;29.50;89.30
27164;DHT22;14685;50.618;7.024;2023-06-19T09:12:05;29.40;89.60
27164;DHT22;14685;50.618;7.024;2023-06-19T09:14:43;29.40;90.20
27164;DHT22;14685;50.618;7.024;2023-06-19T09:17:19;29.50;90.00
27164;DHT22;14685;50.618;7.024;2023-06-19T09:19:50;29.60;89.80
27164;DHT22;14685;50.618;7.024;2023-06-19T09:22:20;29.60;89.80
27164;DHT22;14685;50.618;7.024;2023-06-19T09:24:48;29.70;90.20
27164;DHT22;14685;50.618;7.024;2023-06-19T09:27:19;29.80;90.70
27164;DHT22;14685;50.618;7.024;2023-06-19T09:29:50;30.00;90.40
27164;DHT22;14685;50.618;7.024;2023-06-19T09:32:18;30.10;90.00
27164;DHT22;14685;50.618;7.024;2023-06-19T09:34:47;30.30;90.20
27164;DHT22;14685;50.618;7.024;2023-06-19T09:37:14;30.40;88.90
27164;DHT22;14685;50.618;7.024;2023-06-19T09:39:41;30.50;88.70
27164;DHT22;14685;50.618;7.024;2023-06-19T09:42:09;30.50;88.80
27164;DHT22;14685;50.618;7.024;2023-06-19T09:44:40;30.70;89.40
27164;DHT22;14685;50.618;7.024;2023-06-19T09:47:18;30.90;88.10
27164;DHT22;14685;50.618;7.024;2023-06-19T09:49:53;31.00;87.80
27164;DHT22;14685;50.618;7.024;2023-06-19T09:52:22;31.10;87.80
27164;DHT22;14685;50.618;7.024;2023-06-19T09:54:51;31.10;87.10
27164;DHT22;14685;50.618;7.024;2023-06-19T09:57:19;31.10;87.00
27164;DHT22;14685;50.618;7.024;2023-06-19T09:59:47;31.10;85.70
27164;DHT22;14685;50.618;7.024;2023-06-19T10:02:17;31.30;87.70
27164;DHT22;14685;50.618;7.024;2023-06-19T10:04:48;31.30;85.10
27164;DHT22;14685;50.618;7.024;2023-06-19T10:07:17;31.40;85.70
27164;DHT22;14685;50.618;7.024;2023-06-19T10:10:02;31.50;85.10
27164;DHT22;14685;50.618;7.024;2023-06-19T10:12:43;31.70;85.10
27164;DHT22;14685;50.618;7.024;2023-06-19T10:15:21;31.70;86.40
27164;DHT22;14685;50.618;7.024;2023-06-19T10:25:33;32.00;83.70
27164;DHT22;14685;50.618;7.024;2023-06-19T10:30:51;32.00;81.70
27164;DHT22;14685;50.618;7.024;2023-06-19T10:33:18;32.00;81.20
27164;DHT22;14685;50.618;7.024;2023-06-19T10:35:46;32.00;82.30
27164;DHT22;14685;50.618;7.024;2023-06-19T10:38:15;32.10;82.10
27164;DHT22;14685;50.618;7.024;2023-06-19T10:40:43;32.10;82.60
27164;DHT22;14685;50.618;7.024;2023-06-19T10:43:12;32.00;82.60
27164;DHT22;14685;50.618;7.024;2023-06-19T10:45:39;32.00;82.50
27164;DHT22;14685;50.618;7.024;2023-06-19T10:48:08;31.90;81.00
27164;DHT22;14685;50.618;7.024;2023-06-19T10:50:37;32.00;83.40
27164;DHT22;14685;50.618;7.024;2023-06-19T10:53:08;32.10;82.80
27164;DHT22;14685;50.618;7.024;2023-06-19T10:55:35;32.20;83.70
27164;DHT22;14685;50.618;7.024;2023-06-19T10:58:02;32.20;81.90
27164;DHT22;14685;50.618;7.024;2023-06-19T11:00:32;32.30;81.50
27164;DHT22;14685;50.618;7.024;2023-06-19T11:03:00;32.20;81.50
27164;DHT22;14685;50.618;7.024;2023-06-19T11:05:28;32.30;81.00
27164;DHT22;14685;50.618;7.024;2023-06-19T11:07:58;32.20;81.50
27164;DHT22;14685;50.618;7.024;2023-06-19T11:10:29;32.30;81.10
27164;DHT22;14685;50.618;7.024;2023-06-19T11:12:57;32.20;80.00
27164;DHT22;14685;50.618;7.024;2023-06-19T11:15:34;32.10;80.10
27164;DHT22;14685;50.618;7.024;2023-06-19T11:18:02;32.00;80.60
27164;DHT22;14685;50.618;7.024;2023-06-19T11:20:29;32.10;81.60
27164;DHT22;14685;50.618;7.024;2023-06-19T11:22:58;32.10;77.40
27164;DHT22;14685;50.618;7.024;2023-06-19T11:25:39;32.10;78.30
27164;DHT22;14685;50.618;7.024;2023-06-19T11:28:13;32.10;79.40
27164;DHT22;14685;50.618;7.024;2023-06-19T11:30:41;32.10;79.70
27164;DHT22;14685;50.618;7.024;2023-06-19T11:33:21;32.20;79.40
27164;DHT22;14685;50.618;7.024;2023-06-19T11:35:53;32.20;79.60
27164;DHT22;14685;50.618;7.024;2023-06-19T11:38:25;32.30;79.20
27164;DHT22;14685;50.618;7.024;2023-06-19T11:40:54;32.40;79.20
27164;DHT22;14685;50.618;7.024;2023-06-19T11:43:30;32.50;79.00
27164;DHT22;14685;50.618;7.024;2023-06-19T11:46:07;32.50;79.40
27164;DHT22;14685;50.618;7.024;2023-06-19T11:48:37;32.50;77.70
27164;DHT22;14685;50.618;7.024;2023-06-19T11:51:05;32.50;76.60
27164;DHT22;14685;50.618;7.024;2023-06-19T11:53:31;32.50;77.00
27164;DHT22;14685;50.618;7.024;2023-06-19T11:55:58;32.30;77.50
27164;DHT22;14685;50.618;7.024;2023-06-19T11:58:26;32.30;77.20
27164;DHT22;14685;50.618;7.024;2023-06-19T12:00:53;32.30;78.10
27164;DHT22;14685;50.618;7.024;2023-06-19T12:03:20;32.30;78.30
27164;DHT22;14685;50.618;7.024;2023-06-19T12:05:48;32.30;79.70
27164;DHT22;14685;50.618;7.024;2023-06-19T12:08:14;32.30;79.30
27164;DHT22;14685;50.618;7.024;2023-06-19T12:10:41;32.30;78.60
27164;DHT22;14685;50.618;7.024;2023-06-19T12:13:09;32.30;79.30
27164;DHT22;14685;50.618;7.024;2023-06-19T12:15:35;32.20;77.80
27164;DHT22;14685;50.618;7.024;2023-06-19T12:18:03;32.20;78.20
27164;DHT22;14685;50.618;7.024;2023-06-19T12:20:31;32.20;80.60
27164;DHT22;14685;50.618;7.024;2023-06-19T12:22:58;32.20;78.20
27164;DHT22;14685;50.618;7.024;2023-06-19T12:25:25;32.20;79.40
27164;DHT22;14685;50.618;7.024;2023-06-19T12:27:52;32.20;78.60
27164;DHT22;14685;50.618;7.024;2023-06-19T12:30:21;32.20;76.90
27164;DHT22;14685;50.618;7.024;2023-06-19T12:32:49;32.10;77.30
27164;DHT22;14685;50.618;7.024;2023-06-19T12:35:17;32.00;78.00
27164;DHT22;14685;50.618;7.024;2023-06-19T12:37:45;31.90;78.00
27164;DHT22;14685;50.618;7.024;2023-06-19T12:40:13;31.90;77.20
27164;DHT22;14685;50.618;7.024;2023-06-19T12:42:40;31.90;77.90
27164;DHT22;14685;50.618;7.024;2023-06-19T12:45:07;31.90;77.70
27164;DHT22;14685;50.618;7.024;2023-06-19T12:47:34;32.00;78.60
27164;DHT22;14685;50.618;7.024;2023-06-19T12:50:02;32.00;79.00
27164;DHT22;14685;50.618;7.024;2023-06-19T12:52:29;32.00;76.70
27164;DHT22;14685;50.618;7.024;2023-06-19T12:54:57;31.90;78.30
27164;DHT22;14685;50.618;7.024;2023-06-19T12:57:26;31.90;78.40
27164;DHT22;14685;50.618;7.024;2023-06-19T12:59:53;31.90;79.00
27164;DHT22;14685;50.618;7.024;2023-06-19T13:02:20;31.90;78.40
27164;DHT22;14685;50.618;7.024;2023-06-19T13:04:47;32.00;78.80
27164;DHT22;14685;50.618;7.024;2023-06-19T13:07:14;31.90;78.40
27164;DHT22;14685;50.618;7.024;2023-06-19T13:09:42;31.90;77.10
27164;DHT22;14685;50.618;7.024;2023-06-19T13:12:09;31.80;77.60
27164;DHT22;14685;50.618;7.024;2023-06-19T13:14:36;31.80;78.40
27164;DHT22;14685;50.618;7.024;2023-06-19T13:17:04;31.80;77.90
27164;DHT22;14685;50.618;7.024;2023-06-19T13:19:31;31.80;78.70
27164;DHT22;14685;50.618;7.024;2023-06-19T13:21:58;31.70;79.00
27164;DHT22;14685;50.618;7.024;2023-06-19T13:24:25;31.70;80.20
27164;DHT22;14685;50.618;7.024;2023-06-19T13:26:54;31.70;79.20
27164;DHT22;14685;50.618;7.024;2023-06-19T13:29:21;31.70;80.10
27164;DHT22;14685;50.618;7.024;2023-06-19T13:31:48;31.80;80.00
27164;DHT22;14685;50.618;7.024;2023-06-19T13:34:15;31.80;79.00
27164;DHT22;14685;50.618;7.024;2023-06-19T13:36:42;31.90;78.50
27164;DHT22;14685;50.618;7.024;2023-06-19T13:39:10;31.90;77.30
27164;DHT22;14685;50.618;7.024;2023-06-19T13:41:37;31.80;77.90
27164;DHT22;14685;50.618;7.024;2023-06-19T13:44:04;31.80;77.60
27164;DHT22;14685;50.618;7.024;2023-06-19T13:46:31;31.80;78.10
27164;DHT22;14685;50.618;7.024;2023-06-19T13:48:58;31.80;77.20
27164;DHT22;14685;50.618;7.024;2023-06-19T13:51:26;31.80;77.60
27164;DHT22;14685;50.618;7.024;2023-06-19T13:53:53;31.80;77.70
27164;DHT22;14685;50.618;7.024;2023-06-19T13:56:21;31.80;78.80
27164;DHT22;14685;50.618;7.024;2023-06-19T13:58:50;31.80;79.00
27164;DHT22;14685;50.618;7.024;2023-06-19T14:01:17;31.80;77.60
27164;DHT22;14685;50.618;7.024;2023-06-19T14:03:44;31.80;77.70
27164;DHT22;14685;50.618;7.024;2023-06-19T14:06:11;31.90;77.10
27164;DHT22;14685;50.618;7.024;2023-06-19T14:08:39;31.80;78.30
27164;DHT22;14685;50.618;7.024;2023-06-19T14:11:06;31.80;77.60
27164;DHT22;14685;50.618;7.024;2023-06-19T14:13:33;31.80;77.60
27164;DHT22;14685;50.618;7.024;2023-06-19T14:16:01;31.80;77.50
27164;DHT22;14685;50.618;7.024;2023-06-19T14:18:28;31.80;76.70
27164;DHT22;14685;50.618;7.024;2023-06-19T14:20:55;31.80;76.60
27164;DHT22;14685;50.618;7.024;2023-06-19T14:23:22;31.80;77.30
27164;DHT22;14685;50.618;7.024;2023-06-19T14:25:50;31.80;76.30
27164;DHT22;14685;50.618;7.024;2023-06-19T14:28:17;31.70;78.20
27164;DHT22;14685;50.618;7.024;2023-06-19T14:30:44;31.70;77.60
27164;DHT22;14685;50.618;7.024;2023-06-19T14:33:11;31.60;77.30
27164;DHT22;14685;50.618;7.024;2023-06-19T14:35:42;31.60;77.10
27164;DHT22;14685;50.618;7.024;2023-06-19T14:38:13;31.50;78.10
27164;DHT22;14685;50.618;7.024;2023-06-19T14:40:43;31.50;78.30
27164;DHT22;14685;50.618;7.024;2023-06-19T14:43:11;31.50;78.60
27164;DHT22;14685;50.618;7.024;2023-06-19T14:45:38;31.50;76.90
27164;DHT22;14685;50.618;7.024;2023-06-19T14:48:07;31.40;77.90
27164;DHT22;14685;50.618;7.024;2023-06-19T14:50:34;31.40;79.10
27164;DHT22;14685;50.618;7.024;2023-06-19T14:53:02;31.40;77.90
27164;DHT22;14685;50.618;7.024;2023-06-19T14:55:29;31.40;78.90
27164;DHT22;14685;50.618;7.024;2023-06-19T14:57:56;31.40;77.70
27164;DHT22;14685;50.618;7.024;2023-06-19T15:00:23;31.30;77.30
27164;DHT22;14685;50.618;7.024;2023-06-19T15:02:51;31.30;77.70
27164;DHT22;14685;50.618;7.024;2023-06-19T15:05:19;31.30;79.00
27164;DHT22;14685;50.618;7.024;2023-06-19T15:07:46;31.40;78.50
27164;DHT22;14685;50.618;7.024;2023-06-19T15:10:13;31.40;78.20
27164;DHT22;14685;50.618;7.024;2023-06-19T15:12:40;31.40;79.10
27164;DHT22;14685;50.618;7.024;2023-06-19T15:15:09;31.40;79.10
27164;DHT22;14685;50.618;7.024;2023-06-19T15:17:36;31.30;78.00
27164;DHT22;14685;50.618;7.024;2023-06-19T15:20:07;31.20;79.10
27164;DHT22;14685;50.618;7.024;2023-06-19T15:22:35;31.20;79.50
27164;DHT22;14685;50.618;7.024;2023-06-19T15:25:05;31.20;79.50
27164;DHT22;14685;50.618;7.024;2023-06-19T15:27:32;31.10;79.60
27164;DHT22;14685;50.618;7.024;2023-06-19T15:29:59;31.00;78.80
27164;DHT22;14685;50.618;7.024;2023-06-19T15:32:29;31.00;79.80
27164;DHT22;14685;50.618;7.024;2023-06-19T15:34:56;31.00;79.90
27164;DHT22;14685;50.618;7.024;2023-06-19T15:37:28;30.90;79.10
27164;DHT22;14685;50.618;7.024;2023-06-19T15:39:55;30.90;79.40
27164;DHT22;14685;50.618;7.024;2023-06-19T15:42:23;31.00;79.00
27164;DHT22;14685;50.618;7.024;2023-06-19T15:44:51;31.00;79.20
27164;DHT22;14685;50.618;7.024;2023-06-19T15:47:19;31.00;79.40
27164;DHT22;14685;50.618;7.024;2023-06-19T15:49:46;31.00;79.20
27164;DHT22;14685;50.618;7.024;2023-06-19T15:52:13;31.10;78.60
27164;DHT22;14685;50.618;7.024;2023-06-19T15:54:40;31.00;78.80
27164;DHT22;14685;50.618;7.024;2023-06-19T15:57:07;31.00;79.10